AGROMETEOROLOŠKI PORTAL

vinorodna pokrajina

Temelj dobrega kmetovanja

Pregled podatkov za lokacijo KRŠKO - NEK ARSO, meteorološka postaja 116

Pregled senzorjev na lokaciji

ID Ime Zadnja
vrednost
Datum in čas
meritve
(lokalni čas)
Tip
senzorja
6031 Zračni tlak (hPa) 1015 hPa 4.2.2023 22:30 ARSO
2599 Sončno sevanje (W/m2) 0 W/m2 4.2.2023 22:30 ARSO
2605 Padavine (mm) 0 mm 4.2.2023 22:30 ARSO
2613 Relativna zračna vlaga (2 m) (% RH) 59 % RH 4.2.2023 22:30 ARSO
2612 Temperatura (2 m) (°C) 0 °C 4.2.2023 22:30 ARSO
2617 Smer vetra (2 m) (°) 74 ° 4.2.2023 22:30 ARSO
2618 Hitrost vetra (2 m) (km/h) 5 km/h 4.2.2023 22:30 ARSO

Pregled podatkov zadnjih 24 ur

Zap.
št.
Datum in čas
(lokalni čas)
KRŠKO - NEK ARSO
Zračni
tlak
Sončno
sevanje
Padavine Relativna
zračna
vlaga
(2
m)
Temperatura
(2
m)
Smer
vetra
(2
m)
Hitrost
vetra
(2
m)
1 4.2.2023 22:30 1014,5 0 0 59 0 74 5
2 4.2.2023 22:00 1014,5 0 0 52 1,5 106 10
3 4.2.2023 21:30 1014,1 0 0 51 2 116 10
4 4.2.2023 21:00 1013,9 0 0 52 2,2 119 9
5 4.2.2023 20:30 1013,6 0 0 50 2,6 115 13
6 4.2.2023 20:00 1013,4 0 0 47 2,7 109 12
7 4.2.2023 19:30 1012,9 0 0 42 3,5 96 10
8 4.2.2023 19:00 1012,3 0 0 42 3,4 97 9
9 4.2.2023 18:30 1011,8 0 0 39 4,2 84 8
10 4.2.2023 18:00 1011,3 0 0 36 4,8 57 11
11 4.2.2023 17:30 1010,8 0 0 35 5,2 62 8
12 4.2.2023 17:00 1010,1 23 0 33 6,1 52 12
13 4.2.2023 16:30 1009,6 87 0 32 6,7 41 18
14 4.2.2023 16:00 1009,2 162 0 31 7,1 43 21
15 4.2.2023 15:30 1008,8 243 0 30 7,5 33 22
16 4.2.2023 15:00 1008,3 320 0 30 7,9 34 24
17 4.2.2023 14:30 1007,6 384 0 32 8,3 22 24
18 4.2.2023 14:00 1007,1 438 0 32 8,8 30 19
19 4.2.2023 13:30 1006,4 476 0 32 9,1 19 22
20 4.2.2023 13:00 1005,8 536 0 31 9,9 26 20
21 4.2.2023 12:30 1005,4 521 0 32 9,5 348 26
22 4.2.2023 12:00 1005,1 509 0 36 9,5 360 22
23 4.2.2023 11:30 1005 476 0 41 9,5 13 20
24 4.2.2023 11:00 1004,2 442 0 43 9,7 35 16
25 4.2.2023 10:30 1003,3 324 0 40 10 48 18
26 4.2.2023 10:00 1002,3 300 0 32 10,8 345 22
27 4.2.2023 09:30 1001,7 260 0 34 10,5 342 23
28 4.2.2023 09:00 1001,2 186 0 36 10,1 333 24
29 4.2.2023 08:30 1001 29 0 45 8,4 338 21
30 4.2.2023 08:00 1000,8 10 0 76 2,6 226 9
31 4.2.2023 07:30 1000,4 0 0 94 -0,4 204 8
32 4.2.2023 07:00 1000 0 0 95 -0,8 203 3
33 4.2.2023 06:30 999,4 0 0 94 -0,4 262 4
34 4.2.2023 06:00 999,4 0 0 94 0,2 252 3
35 4.2.2023 05:30 999,5 0 0 95 -0,1 198 6
36 4.2.2023 05:00 999,5 0 0 95 -0,6 277 6
37 4.2.2023 04:30 999,3 0 0 94 -0,4 62 3
38 4.2.2023 04:00 999,2 0 0 95 0 222 4
39 4.2.2023 03:30 999,3 0 0 93 -0,1 277 5
40 4.2.2023 03:00 999,2 0 0 92 1 115 3
41 4.2.2023 02:30 999,2 0 0 90 2 306 3
42 4.2.2023 02:00 999,2 0 0 89 2,3 286 8
43 4.2.2023 01:30 999,2 0 0 86 3 52 5
44 4.2.2023 01:00 999,1 0 0 85 3,6 325 8
45 4.2.2023 00:30 999,1 0 0 86 3,5 288 9
46 4.2.2023 00:00 999,1 0 0 83 4 285 8
47 3.2.2023 23:30 999,2 0 0 76 5,8 307 3
48 3.2.2023 23:00 999 0 0 75 6,1 254 11